sensor_id;sensor_type;location;lat;lon;timestamp;pressure;altitude;pressure_sealevel;temperature;humidity
78717;BME280;68045;50.042;14.432;2023-02-26T00:00:34;97458.50;;;1.47;73.87
78717;BME280;68045;50.042;14.432;2023-02-26T00:04:55;97460.69;;;1.44;73.31
78717;BME280;68045;50.042;14.432;2023-02-26T00:08:56;97469.25;;;1.37;73.30
78717;BME280;68045;50.042;14.432;2023-02-26T00:12:57;97467.81;;;1.28;73.40
78717;BME280;68045;50.042;14.432;2023-02-26T00:21:20;97475.66;;;1.07;74.07
78717;BME280;68045;50.042;14.432;2023-02-26T00:25:22;97478.66;;;1.10;73.59
78717;BME280;68045;50.042;14.432;2023-02-26T00:29:23;97482.25;;;1.09;73.58
78717;BME280;68045;50.042;14.432;2023-02-26T00:33:25;97481.97;;;0.98;73.76
78717;BME280;68045;50.042;14.432;2023-02-26T00:41:29;97506.38;;;1.03;73.96
78717;BME280;68045;50.042;14.432;2023-02-26T00:45:30;97512.03;;;1.07;73.52
78717;BME280;68045;50.042;14.432;2023-02-26T00:49:42;97511.88;;;1.15;73.45
78717;BME280;68045;50.042;14.432;2023-02-26T00:54:12;97503.84;;;1.10;72.31
78717;BME280;68045;50.042;14.432;2023-02-26T00:58:16;97509.28;;;1.15;73.09
78717;BME280;68045;50.042;14.432;2023-02-26T01:02:17;97522.88;;;1.17;72.60
78717;BME280;68045;50.042;14.432;2023-02-26T01:06:20;97527.09;;;1.18;73.20
78717;BME280;68045;50.042;14.432;2023-02-26T01:10:22;97517.75;;;1.24;73.25
78717;BME280;68045;50.042;14.432;2023-02-26T01:14:23;97525.72;;;1.22;72.56
78717;BME280;68045;50.042;14.432;2023-02-26T01:18:29;97529.69;;;1.18;72.55
78717;BME280;68045;50.042;14.432;2023-02-26T01:22:53;97535.28;;;1.15;72.80
78717;BME280;68045;50.042;14.432;2023-02-26T01:26:55;97533.84;;;1.13;73.27
78717;BME280;68045;50.042;14.432;2023-02-26T01:31:00;97539.81;;;1.06;73.25
78717;BME280;68045;50.042;14.432;2023-02-26T01:39:19;97544.22;;;1.13;73.05
78717;BME280;68045;50.042;14.432;2023-02-26T01:48:02;97539.41;;;1.09;73.89
78717;BME280;68045;50.042;14.432;2023-02-26T01:53:00;97546.41;;;1.09;73.27
78717;BME280;68045;50.042;14.432;2023-02-26T01:56:28;97555.25;;;1.15;72.40
78717;BME280;68045;50.042;14.432;2023-02-26T02:00:30;97558.22;;;1.12;72.78
78717;BME280;68045;50.042;14.432;2023-02-26T02:04:31;97565.00;;;1.13;72.29
78717;BME280;68045;50.042;14.432;2023-02-26T02:08:35;97574.38;;;1.07;72.34
78717;BME280;68045;50.042;14.432;2023-02-26T02:16:54;97577.97;;;1.06;71.57
78717;BME280;68045;50.042;14.432;2023-02-26T02:30:27;97588.97;;;0.87;71.93
78717;BME280;68045;50.042;14.432;2023-02-26T02:34:38;97587.19;;;0.87;71.33
78717;BME280;68045;50.042;14.432;2023-02-26T02:38:47;97596.78;;;0.87;71.56
78717;BME280;68045;50.042;14.432;2023-02-26T02:42:54;97594.78;;;0.89;71.30
78717;BME280;68045;50.042;14.432;2023-02-26T02:46:58;97599.72;;;0.83;71.29
78717;BME280;68045;50.042;14.432;2023-02-26T02:51:10;97605.38;;;0.87;72.17
78717;BME280;68045;50.042;14.432;2023-02-26T02:55:20;97613.03;;;0.95;70.98
78717;BME280;68045;50.042;14.432;2023-02-26T03:08:06;97634.63;;;0.96;70.08
78717;BME280;68045;50.042;14.432;2023-02-26T03:12:09;97639.34;;;1.07;70.14
78717;BME280;68045;50.042;14.432;2023-02-26T03:21:11;97657.00;;;0.97;70.82
78717;BME280;68045;50.042;14.432;2023-02-26T03:29:54;97663.41;;;1.16;69.69
78717;BME280;68045;50.042;14.432;2023-02-26T03:34:05;97667.41;;;1.18;69.54
78717;BME280;68045;50.042;14.432;2023-02-26T03:38:12;97683.47;;;1.22;68.90
78717;BME280;68045;50.042;14.432;2023-02-26T03:42:59;97682.78;;;1.13;69.13
78717;BME280;68045;50.042;14.432;2023-02-26T03:47:07;97687.16;;;1.13;69.60
78717;BME280;68045;50.042;14.432;2023-02-26T03:51:11;97690.75;;;1.12;69.22
78717;BME280;68045;50.042;14.432;2023-02-26T03:55:16;97695.81;;;1.20;68.97
78717;BME280;68045;50.042;14.432;2023-02-26T03:59:29;97701.94;;;1.12;68.29
78717;BME280;68045;50.042;14.432;2023-02-26T04:04:00;97696.66;;;1.05;68.23
78717;BME280;68045;50.042;14.432;2023-02-26T04:08:03;97710.72;;;1.11;69.57
78717;BME280;68045;50.042;14.432;2023-02-26T04:12:04;97719.03;;;1.21;69.85
78717;BME280;68045;50.042;14.432;2023-02-26T04:16:06;97721.66;;;1.21;68.85
78717;BME280;68045;50.042;14.432;2023-02-26T04:20:08;97726.03;;;1.21;69.09
78717;BME280;68045;50.042;14.432;2023-02-26T04:24:12;97720.94;;;1.13;69.17
78717;BME280;68045;50.042;14.432;2023-02-26T04:28:14;97727.38;;;1.17;69.42
78717;BME280;68045;50.042;14.432;2023-02-26T04:32:15;97732.06;;;1.06;68.32
78717;BME280;68045;50.042;14.432;2023-02-26T04:36:17;97734.75;;;0.98;68.46
78717;BME280;68045;50.042;14.432;2023-02-26T04:40:18;97730.47;;;0.91;69.26
78717;BME280;68045;50.042;14.432;2023-02-26T04:44:19;97745.53;;;0.95;69.40
78717;BME280;68045;50.042;14.432;2023-02-26T04:48:20;97738.03;;;0.86;69.27
78717;BME280;68045;50.042;14.432;2023-02-26T04:52:22;97748.22;;;0.87;69.86
78717;BME280;68045;50.042;14.432;2023-02-26T04:56:24;97752.50;;;0.95;70.28
78717;BME280;68045;50.042;14.432;2023-02-26T05:00:41;97767.72;;;0.98;69.39
78717;BME280;68045;50.042;14.432;2023-02-26T05:04:42;97770.78;;;1.01;69.08
78717;BME280;68045;50.042;14.432;2023-02-26T05:08:43;97777.59;;;1.02;68.62
78717;BME280;68045;50.042;14.432;2023-02-26T05:12:45;97777.06;;;0.92;67.72
78717;BME280;68045;50.042;14.432;2023-02-26T05:16:45;97780.28;;;0.94;67.51
78717;BME280;68045;50.042;14.432;2023-02-26T05:20:51;97773.13;;;0.81;66.82
78717;BME280;68045;50.042;14.432;2023-02-26T05:24:53;97784.41;;;0.59;68.23
78717;BME280;68045;50.042;14.432;2023-02-26T05:28:54;97789.50;;;0.52;68.21
78717;BME280;68045;50.042;14.432;2023-02-26T05:32:55;97790.91;;;0.40;68.54
78717;BME280;68045;50.042;14.432;2023-02-26T05:36:56;97796.66;;;0.36;68.91
78717;BME280;68045;50.042;14.432;2023-02-26T05:40:58;97804.16;;;0.31;69.39
78717;BME280;68045;50.042;14.432;2023-02-26T05:44:59;97812.16;;;0.44;69.21
78717;BME280;68045;50.042;14.432;2023-02-26T05:49:00;97819.06;;;0.51;68.37
78717;BME280;68045;50.042;14.432;2023-02-26T05:53:01;97825.44;;;0.64;68.51
78717;BME280;68045;50.042;14.432;2023-02-26T05:57:02;97832.22;;;0.65;68.04
78717;BME280;68045;50.042;14.432;2023-02-26T06:01:03;97847.00;;;0.64;67.26
78717;BME280;68045;50.042;14.432;2023-02-26T06:05:05;97849.06;;;0.69;68.79
78717;BME280;68045;50.042;14.432;2023-02-26T06:09:07;97858.44;;;0.70;67.46
78717;BME280;68045;50.042;14.432;2023-02-26T06:13:08;97873.06;;;0.71;67.60
78717;BME280;68045;50.042;14.432;2023-02-26T06:17:10;97884.81;;;0.81;67.27
78717;BME280;68045;50.042;14.432;2023-02-26T06:21:11;97884.91;;;0.88;67.60
78717;BME280;68045;50.042;14.432;2023-02-26T06:25:12;97904.47;;;0.99;67.38
78717;BME280;68045;50.042;14.432;2023-02-26T06:29:13;97909.56;;;1.07;66.57
78717;BME280;68045;50.042;14.432;2023-02-26T06:33:14;97913.50;;;1.03;64.90
78717;BME280;68045;50.042;14.432;2023-02-26T06:37:16;97913.75;;;0.93;65.47
78717;BME280;68045;50.042;14.432;2023-02-26T06:41:17;97928.38;;;0.94;66.84
78717;BME280;68045;50.042;14.432;2023-02-26T06:45:18;97944.06;;;1.01;67.09
78717;BME280;68045;50.042;14.432;2023-02-26T06:49:19;97936.81;;;1.11;65.77
78717;BME280;68045;50.042;14.432;2023-02-26T06:53:20;97941.66;;;1.14;66.48
78717;BME280;68045;50.042;14.432;2023-02-26T06:57:21;97949.81;;;1.26;66.55
78717;BME280;68045;50.042;14.432;2023-02-26T07:01:22;97960.13;;;1.34;66.43
78717;BME280;68045;50.042;14.432;2023-02-26T07:05:24;97970.69;;;1.32;65.21
78717;BME280;68045;50.042;14.432;2023-02-26T07:09:25;97973.19;;;1.26;65.72
78717;BME280;68045;50.042;14.432;2023-02-26T07:13:26;97977.97;;;1.22;63.93
78717;BME280;68045;50.042;14.432;2023-02-26T07:17:27;97983.50;;;1.19;64.27
78717;BME280;68045;50.042;14.432;2023-02-26T07:21:28;97999.19;;;1.26;65.17
78717;BME280;68045;50.042;14.432;2023-02-26T07:25:30;98008.19;;;1.38;64.36
78717;BME280;68045;50.042;14.432;2023-02-26T07:29:31;98011.78;;;1.52;61.87
78717;BME280;68045;50.042;14.432;2023-02-26T07:33:32;98011.69;;;1.60;63.76
78717;BME280;68045;50.042;14.432;2023-02-26T07:37:34;98028.91;;;1.76;62.30
78717;BME280;68045;50.042;14.432;2023-02-26T07:41:38;98031.34;;;1.92;61.96
78717;BME280;68045;50.042;14.432;2023-02-26T07:45:51;98024.44;;;2.35;61.47
78717;BME280;68045;50.042;14.432;2023-02-26T07:49:53;98041.66;;;2.51;57.92
78717;BME280;68045;50.042;14.432;2023-02-26T07:53:54;98048.13;;;2.77;58.69
78717;BME280;68045;50.042;14.432;2023-02-26T07:57:55;98043.72;;;2.77;58.00
78717;BME280;68045;50.042;14.432;2023-02-26T08:01:56;98055.16;;;2.76;58.72
78717;BME280;68045;50.042;14.432;2023-02-26T08:05:58;98063.69;;;2.70;59.53
78717;BME280;68045;50.042;14.432;2023-02-26T08:10:03;98070.19;;;2.59;59.42
78717;BME280;68045;50.042;14.432;2023-02-26T08:14:05;98073.06;;;2.64;59.79
78717;BME280;68045;50.042;14.432;2023-02-26T08:18:06;98075.44;;;2.81;58.37
78717;BME280;68045;50.042;14.432;2023-02-26T08:22:07;98074.63;;;3.01;57.19
78717;BME280;68045;50.042;14.432;2023-02-26T08:26:10;98078.22;;;3.22;58.47
78717;BME280;68045;50.042;14.432;2023-02-26T08:30:13;98086.34;;;3.34;57.19
78717;BME280;68045;50.042;14.432;2023-02-26T08:34:14;98101.34;;;3.74;56.06
78717;BME280;68045;50.042;14.432;2023-02-26T08:38:16;98108.00;;;3.83;54.73
78717;BME280;68045;50.042;14.432;2023-02-26T08:42:17;98109.88;;;3.62;53.17
78717;BME280;68045;50.042;14.432;2023-02-26T08:46:20;98126.16;;;3.21;54.18
78717;BME280;68045;50.042;14.432;2023-02-26T08:50:21;98127.19;;;2.84;56.47
78717;BME280;68045;50.042;14.432;2023-02-26T08:54:22;98122.31;;;3.17;56.56
78717;BME280;68045;50.042;14.432;2023-02-26T08:58:24;98138.81;;;3.45;55.34
78717;BME280;68045;50.042;14.432;2023-02-26T09:02:25;98145.38;;;3.84;54.55
78717;BME280;68045;50.042;14.432;2023-02-26T09:06:27;98140.84;;;4.34;52.47
78717;BME280;68045;50.042;14.432;2023-02-26T09:10:29;98153.78;;;4.49;52.23
78717;BME280;68045;50.042;14.432;2023-02-26T09:14:30;98160.06;;;4.54;52.32
78717;BME280;68045;50.042;14.432;2023-02-26T09:18:31;98155.88;;;4.60;52.57
78717;BME280;68045;50.042;14.432;2023-02-26T09:22:32;98154.78;;;4.48;51.38
78717;BME280;68045;50.042;14.432;2023-02-26T09:26:33;98162.34;;;4.36;52.62
78717;BME280;68045;50.042;14.432;2023-02-26T09:30:34;98177.69;;;4.11;51.73
78717;BME280;68045;50.042;14.432;2023-02-26T09:34:37;98181.97;;;4.19;53.45
78717;BME280;68045;50.042;14.432;2023-02-26T09:38:39;98173.50;;;4.45;50.58
78717;BME280;68045;50.042;14.432;2023-02-26T09:47:12;98183.22;;;8.53;40.12
78717;BME280;68045;50.042;14.432;2023-02-26T09:51:20;98192.75;;;9.63;37.27
78717;BME280;68045;50.042;14.432;2023-02-26T09:55:38;98199.84;;;8.22;39.41
78717;BME280;68045;50.042;14.432;2023-02-26T09:59:43;98201.94;;;7.26;42.81
78717;BME280;68045;50.042;14.432;2023-02-26T10:07:59;98209.31;;;5.79;44.97
78717;BME280;68045;50.042;14.432;2023-02-26T10:12:12;98204.34;;;5.17;46.23
78717;BME280;68045;50.042;14.432;2023-02-26T10:16:16;98211.22;;;4.77;49.14
78717;BME280;68045;50.042;14.432;2023-02-26T10:20:53;98218.75;;;4.86;48.97
78717;BME280;68045;50.042;14.432;2023-02-26T10:25:19;98216.38;;;5.05;48.88
78717;BME280;68045;50.042;14.432;2023-02-26T10:29:29;98230.28;;;5.12;48.59
78717;BME280;68045;50.042;14.432;2023-02-26T10:38:19;98237.06;;;5.00;48.17
78717;BME280;68045;50.042;14.432;2023-02-26T10:42:32;98242.66;;;4.90;50.99
78717;BME280;68045;50.042;14.432;2023-02-26T10:47:00;98253.34;;;4.54;52.90
78717;BME280;68045;50.042;14.432;2023-02-26T10:51:12;98268.31;;;4.38;52.77
78717;BME280;68045;50.042;14.432;2023-02-26T10:59:37;98246.31;;;7.40;46.53
78717;BME280;68045;50.042;14.432;2023-02-26T11:03:47;98261.75;;;7.17;46.14
78717;BME280;68045;50.042;14.432;2023-02-26T11:08:00;98267.75;;;6.59;46.57
78717;BME280;68045;50.042;14.432;2023-02-26T11:12:13;98266.19;;;5.92;49.38
78717;BME280;68045;50.042;14.432;2023-02-26T11:16:16;98272.28;;;5.45;51.17
78717;BME280;68045;50.042;14.432;2023-02-26T11:20:28;98265.44;;;4.96;50.66
78717;BME280;68045;50.042;14.432;2023-02-26T11:24:33;98278.19;;;5.67;50.05
78717;BME280;68045;50.042;14.432;2023-02-26T11:28:46;98273.38;;;7.79;44.97
78717;BME280;68045;50.042;14.432;2023-02-26T11:32:52;98286.50;;;8.11;43.66
78717;BME280;68045;50.042;14.432;2023-02-26T11:36:56;98276.53;;;7.88;43.89
78717;BME280;68045;50.042;14.432;2023-02-26T11:40:59;98278.03;;;6.74;47.33
78717;BME280;68045;50.042;14.432;2023-02-26T11:45:01;98280.06;;;6.13;48.05
78717;BME280;68045;50.042;14.432;2023-02-26T11:49:05;98297.75;;;5.23;50.33
78717;BME280;68045;50.042;14.432;2023-02-26T11:53:18;98296.25;;;5.01;51.70
78717;BME280;68045;50.042;14.432;2023-02-26T11:57:25;98291.34;;;4.91;51.77
78717;BME280;68045;50.042;14.432;2023-02-26T12:01:28;98305.38;;;4.83;52.09
78717;BME280;68045;50.042;14.432;2023-02-26T12:05:30;98303.59;;;4.56;53.54
78717;BME280;68045;50.042;14.432;2023-02-26T12:09:31;98304.06;;;4.10;54.71
78717;BME280;68045;50.042;14.432;2023-02-26T12:13:46;98303.16;;;3.60;55.85
78717;BME280;68045;50.042;14.432;2023-02-26T12:26:48;98309.31;;;3.38;58.36
78717;BME280;68045;50.042;14.432;2023-02-26T12:31:00;98308.09;;;3.55;56.92
78717;BME280;68045;50.042;14.432;2023-02-26T12:35:22;98314.78;;;3.43;55.69
78717;BME280;68045;50.042;14.432;2023-02-26T12:43:55;98317.25;;;3.87;55.62
78717;BME280;68045;50.042;14.432;2023-02-26T12:52:47;98331.19;;;7.21;45.70
78717;BME280;68045;50.042;14.432;2023-02-26T12:57:01;98326.34;;;9.07;39.40
78717;BME280;68045;50.042;14.432;2023-02-26T13:01:23;98329.66;;;9.21;39.54
78717;BME280;68045;50.042;14.432;2023-02-26T13:05:45;98332.31;;;8.21;40.28
78717;BME280;68045;50.042;14.432;2023-02-26T13:14:24;98336.88;;;5.99;48.29
78717;BME280;68045;50.042;14.432;2023-02-26T13:23:02;98339.88;;;5.00;48.88
78717;BME280;68045;50.042;14.432;2023-02-26T13:27:05;98344.00;;;4.81;49.36
78717;BME280;68045;50.042;14.432;2023-02-26T13:31:50;98349.88;;;4.62;50.50
78717;BME280;68045;50.042;14.432;2023-02-26T13:35:53;98354.59;;;4.24;50.79
78717;BME280;68045;50.042;14.432;2023-02-26T13:53:00;98350.13;;;7.88;42.60
78717;BME280;68045;50.042;14.432;2023-02-26T14:10:00;98333.91;;;6.61;44.97
78717;BME280;68045;50.042;14.432;2023-02-26T14:22:40;98349.13;;;4.40;50.29
78717;BME280;68045;50.042;14.432;2023-02-26T14:26:46;98364.41;;;4.22;49.97
78717;BME280;68045;50.042;14.432;2023-02-26T14:30:51;98359.69;;;3.89;50.86
78717;BME280;68045;50.042;14.432;2023-02-26T14:34:53;98357.31;;;3.58;51.96
78717;BME280;68045;50.042;14.432;2023-02-26T14:38:59;98358.31;;;3.57;52.99
78717;BME280;68045;50.042;14.432;2023-02-26T14:43:04;98370.63;;;3.63;51.27
78717;BME280;68045;50.042;14.432;2023-02-26T14:47:06;98377.41;;;5.55;47.45
78717;BME280;68045;50.042;14.432;2023-02-26T15:25:36;98420.75;;;4.95;45.54
78717;BME280;68045;50.042;14.432;2023-02-26T15:29:39;98426.81;;;5.02;46.16
78717;BME280;68045;50.042;14.432;2023-02-26T15:33:42;98428.03;;;4.35;47.82
78717;BME280;68045;50.042;14.432;2023-02-26T15:37:56;98434.88;;;3.64;49.61
78717;BME280;68045;50.042;14.432;2023-02-26T15:41:57;98442.50;;;3.07;50.93
78717;BME280;68045;50.042;14.432;2023-02-26T15:45:59;98445.22;;;2.75;52.07
78717;BME280;68045;50.042;14.432;2023-02-26T15:50:00;98436.00;;;3.02;51.40
78717;BME280;68045;50.042;14.432;2023-02-26T15:54:01;98448.00;;;4.22;49.16
78717;BME280;68045;50.042;14.432;2023-02-26T15:58:05;98452.91;;;4.10;48.66
78717;BME280;68045;50.042;14.432;2023-02-26T16:02:11;98456.94;;;3.62;49.14
78717;BME280;68045;50.042;14.432;2023-02-26T16:06:18;98456.84;;;3.40;51.12
78717;BME280;68045;50.042;14.432;2023-02-26T16:10:35;98471.19;;;3.21;51.59
78717;BME280;68045;50.042;14.432;2023-02-26T16:14:42;98478.25;;;2.98;52.17
78717;BME280;68045;50.042;14.432;2023-02-26T16:18:45;98495.41;;;2.92;52.65
78717;BME280;68045;50.042;14.432;2023-02-26T16:22:47;98506.13;;;2.74;52.70
78717;BME280;68045;50.042;14.432;2023-02-26T16:26:55;98516.09;;;2.71;53.82
78717;BME280;68045;50.042;14.432;2023-02-26T16:30:59;98508.53;;;2.61;53.17
78717;BME280;68045;50.042;14.432;2023-02-26T16:35:35;98519.63;;;2.55;52.80
78717;BME280;68045;50.042;14.432;2023-02-26T16:39:43;98534.38;;;2.40;53.49
78717;BME280;68045;50.042;14.432;2023-02-26T16:47:53;98546.28;;;2.34;53.11
78717;BME280;68045;50.042;14.432;2023-02-26T16:51:55;98555.97;;;2.09;53.57
78717;BME280;68045;50.042;14.432;2023-02-26T16:55:57;98556.59;;;2.11;54.72
78717;BME280;68045;50.042;14.432;2023-02-26T17:00:02;98569.63;;;2.11;54.58
78717;BME280;68045;50.042;14.432;2023-02-26T17:04:06;98582.31;;;2.14;54.63
78717;BME280;68045;50.042;14.432;2023-02-26T17:08:18;98589.31;;;2.14;56.80
78717;BME280;68045;50.042;14.432;2023-02-26T17:16:37;98593.06;;;2.03;55.85
78717;BME280;68045;50.042;14.432;2023-02-26T17:20:39;98610.16;;;2.06;56.35
78717;BME280;68045;50.042;14.432;2023-02-26T17:24:43;98610.03;;;1.99;57.09
78717;BME280;68045;50.042;14.432;2023-02-26T17:28:45;98616.38;;;1.88;57.07
78717;BME280;68045;50.042;14.432;2023-02-26T17:32:46;98626.75;;;1.97;57.19
78717;BME280;68045;50.042;14.432;2023-02-26T17:36:48;98636.38;;;1.88;57.04
78717;BME280;68045;50.042;14.432;2023-02-26T17:40:49;98647.97;;;1.77;56.44
78717;BME280;68045;50.042;14.432;2023-02-26T17:44:54;98649.09;;;1.58;57.87
78717;BME280;68045;50.042;14.432;2023-02-26T17:48:56;98660.16;;;1.36;58.68
78717;BME280;68045;50.042;14.432;2023-02-26T17:52:57;98663.22;;;1.23;59.41
78717;BME280;68045;50.042;14.432;2023-02-26T17:56:58;98667.94;;;1.28;60.35
78717;BME280;68045;50.042;14.432;2023-02-26T18:01:00;98673.31;;;1.34;59.38
78717;BME280;68045;50.042;14.432;2023-02-26T18:05:04;98677.72;;;1.34;60.53
78717;BME280;68045;50.042;14.432;2023-02-26T18:09:05;98677.38;;;1.37;60.41
78717;BME280;68045;50.042;14.432;2023-02-26T18:13:08;98680.44;;;1.41;60.60
78717;BME280;68045;50.042;14.432;2023-02-26T18:17:15;98682.41;;;1.30;61.58
78717;BME280;68045;50.042;14.432;2023-02-26T18:21:18;98684.66;;;1.33;61.45
78717;BME280;68045;50.042;14.432;2023-02-26T18:25:20;98682.75;;;1.35;62.13
78717;BME280;68045;50.042;14.432;2023-02-26T18:29:21;98689.41;;;1.38;61.49
78717;BME280;68045;50.042;14.432;2023-02-26T18:33:23;98681.75;;;1.45;61.34
78717;BME280;68045;50.042;14.432;2023-02-26T18:37:26;98687.13;;;1.43;61.96
78717;BME280;68045;50.042;14.432;2023-02-26T18:41:28;98696.22;;;1.47;62.42
78717;BME280;68045;50.042;14.432;2023-02-26T18:45:29;98701.59;;;1.37;62.28
78717;BME280;68045;50.042;14.432;2023-02-26T18:49:31;98705.28;;;1.19;62.31
78717;BME280;68045;50.042;14.432;2023-02-26T18:53:32;98712.28;;;1.26;62.79
78717;BME280;68045;50.042;14.432;2023-02-26T18:57:35;98715.38;;;1.22;63.86
78717;BME280;68045;50.042;14.432;2023-02-26T19:01:36;98716.66;;;1.26;62.96
78717;BME280;68045;50.042;14.432;2023-02-26T19:05:37;98720.06;;;1.18;63.75
78717;BME280;68045;50.042;14.432;2023-02-26T19:09:38;98714.41;;;1.23;64.71
78717;BME280;68045;50.042;14.432;2023-02-26T19:13:39;98715.88;;;1.33;65.03
78717;BME280;68045;50.042;14.432;2023-02-26T19:17:41;98716.53;;;1.35;64.43
78717;BME280;68045;50.042;14.432;2023-02-26T19:21:42;98722.72;;;1.34;64.62
78717;BME280;68045;50.042;14.432;2023-02-26T19:25:43;98729.19;;;1.30;64.57
78717;BME280;68045;50.042;14.432;2023-02-26T19:29:44;98737.28;;;1.19;65.43
78717;BME280;68045;50.042;14.432;2023-02-26T19:33:45;98743.28;;;1.12;64.83
78717;BME280;68045;50.042;14.432;2023-02-26T19:37:47;98748.63;;;1.02;65.83
78717;BME280;68045;50.042;14.432;2023-02-26T19:41:49;98757.22;;;1.02;65.31
78717;BME280;68045;50.042;14.432;2023-02-26T19:45:53;98756.25;;;1.03;66.00
78717;BME280;68045;50.042;14.432;2023-02-26T19:49:56;98755.97;;;1.15;66.41
78717;BME280;68045;50.042;14.432;2023-02-26T19:53:57;98762.47;;;1.19;65.46
78717;BME280;68045;50.042;14.432;2023-02-26T19:57:58;98766.69;;;1.20;65.37
78717;BME280;68045;50.042;14.432;2023-02-26T20:01:59;98767.03;;;1.17;65.80
78717;BME280;68045;50.042;14.432;2023-02-26T20:06:00;98774.50;;;1.20;66.24
78717;BME280;68045;50.042;14.432;2023-02-26T20:10:02;98779.56;;;1.21;66.27
78717;BME280;68045;50.042;14.432;2023-02-26T20:14:04;98779.22;;;1.24;66.51
78717;BME280;68045;50.042;14.432;2023-02-26T20:18:06;98793.00;;;1.17;66.78
78717;BME280;68045;50.042;14.432;2023-02-26T20:22:07;98797.25;;;1.18;66.44
78717;BME280;68045;50.042;14.432;2023-02-26T20:26:13;98798.38;;;1.15;67.07
78717;BME280;68045;50.042;14.432;2023-02-26T20:30:14;98805.56;;;1.21;66.12
78717;BME280;68045;50.042;14.432;2023-02-26T20:34:17;98807.97;;;1.15;65.81
78717;BME280;68045;50.042;14.432;2023-02-26T20:38:20;98807.13;;;1.06;66.45
78717;BME280;68045;50.042;14.432;2023-02-26T20:42:21;98806.94;;;0.99;67.02
78717;BME280;68045;50.042;14.432;2023-02-26T20:46:23;98820.56;;;1.01;66.93
78717;BME280;68045;50.042;14.432;2023-02-26T20:50:24;98826.13;;;1.06;66.45
78717;BME280;68045;50.042;14.432;2023-02-26T20:54:25;98835.84;;;1.04;65.80
78717;BME280;68045;50.042;14.432;2023-02-26T20:58:27;98838.88;;;0.92;66.44
78717;BME280;68045;50.042;14.432;2023-02-26T21:02:28;98836.91;;;0.86;66.03
78717;BME280;68045;50.042;14.432;2023-02-26T21:06:30;98840.16;;;0.88;66.81
78717;BME280;68045;50.042;14.432;2023-02-26T21:10:32;98840.22;;;1.04;67.07
78717;BME280;68045;50.042;14.432;2023-02-26T21:14:33;98842.16;;;1.02;66.73
78717;BME280;68045;50.042;14.432;2023-02-26T21:18:36;98854.66;;;0.98;66.95
78717;BME280;68045;50.042;14.432;2023-02-26T21:22:37;98855.81;;;1.04;66.84
78717;BME280;68045;50.042;14.432;2023-02-26T21:26:39;98854.22;;;1.11;66.96
78717;BME280;68045;50.042;14.432;2023-02-26T21:30:40;98860.03;;;1.05;66.16
78717;BME280;68045;50.042;14.432;2023-02-26T21:34:41;98871.31;;;1.14;66.48
78717;BME280;68045;50.042;14.432;2023-02-26T21:38:42;98860.41;;;1.10;65.91
78717;BME280;68045;50.042;14.432;2023-02-26T21:42:45;98866.41;;;1.10;66.58
78717;BME280;68045;50.042;14.432;2023-02-26T21:46:46;98863.19;;;1.17;66.93
78717;BME280;68045;50.042;14.432;2023-02-26T21:50:47;98858.16;;;1.15;66.98
78717;BME280;68045;50.042;14.432;2023-02-26T21:54:49;98867.91;;;1.13;66.65
78717;BME280;68045;50.042;14.432;2023-02-26T21:58:51;98862.88;;;1.20;67.05
78717;BME280;68045;50.042;14.432;2023-02-26T22:02:52;98865.44;;;1.12;66.66
78717;BME280;68045;50.042;14.432;2023-02-26T22:06:53;98858.94;;;1.07;67.20
78717;BME280;68045;50.042;14.432;2023-02-26T22:10:54;98883.91;;;1.00;67.33
78717;BME280;68045;50.042;14.432;2023-02-26T22:14:56;98879.28;;;0.86;67.93
78717;BME280;68045;50.042;14.432;2023-02-26T22:18:57;98886.25;;;0.86;67.82
78717;BME280;68045;50.042;14.432;2023-02-26T22:22:58;98884.97;;;0.90;68.36
78717;BME280;68045;50.042;14.432;2023-02-26T22:26:59;98890.72;;;0.75;67.94
78717;BME280;68045;50.042;14.432;2023-02-26T22:31:01;98898.69;;;0.74;68.41
78717;BME280;68045;50.042;14.432;2023-02-26T22:35:02;98904.53;;;0.76;68.51
78717;BME280;68045;50.042;14.432;2023-02-26T22:39:04;98916.28;;;0.62;68.97
78717;BME280;68045;50.042;14.432;2023-02-26T22:43:06;98901.44;;;0.54;69.29
78717;BME280;68045;50.042;14.432;2023-02-26T22:47:08;98908.94;;;0.58;69.96
78717;BME280;68045;50.042;14.432;2023-02-26T22:51:10;98919.25;;;0.67;69.59
78717;BME280;68045;50.042;14.432;2023-02-26T22:55:12;98919.25;;;0.67;69.35
78717;BME280;68045;50.042;14.432;2023-02-26T22:59:13;98918.00;;;0.71;68.73
78717;BME280;68045;50.042;14.432;2023-02-26T23:03:14;98918.13;;;0.70;68.57
78717;BME280;68045;50.042;14.432;2023-02-26T23:07:15;98909.16;;;0.64;68.60
78717;BME280;68045;50.042;14.432;2023-02-26T23:11:17;98924.97;;;0.53;68.99
78717;BME280;68045;50.042;14.432;2023-02-26T23:15:18;98913.91;;;0.51;69.75
78717;BME280;68045;50.042;14.432;2023-02-26T23:19:20;98925.41;;;0.48;69.80
78717;BME280;68045;50.042;14.432;2023-02-26T23:23:21;98918.31;;;0.50;70.13
78717;BME280;68045;50.042;14.432;2023-02-26T23:27:22;98915.00;;;0.66;70.03
78717;BME280;68045;50.042;14.432;2023-02-26T23:31:23;98908.47;;;0.62;69.17
78717;BME280;68045;50.042;14.432;2023-02-26T23:35:25;98918.53;;;0.57;68.44
78717;BME280;68045;50.042;14.432;2023-02-26T23:39:26;98926.75;;;0.52;68.93
78717;BME280;68045;50.042;14.432;2023-02-26T23:43:31;98907.31;;;0.39;69.06
78717;BME280;68045;50.042;14.432;2023-02-26T23:47:33;98916.97;;;0.29;69.58
78717;BME280;68045;50.042;14.432;2023-02-26T23:51:33;98926.50;;;0.28;69.28
78717;BME280;68045;50.042;14.432;2023-02-26T23:55:35;98917.03;;;0.19;69.65
78717;BME280;68045;50.042;14.432;2023-02-26T23:59:36;98908.34;;;0.10;69.21
